RPi & Temperatures at JO21ut

Last graph updates: Tuesday 16 July 2019 10:02 CEST

Sunrise: 05:35 & Sunset: 21:50 The Sun is currently visible at an elevation of degrees and azimut of and 152052561 Km from the Earth
Moonrise: 21:44 & Moonset: 4:58 Full Moon The Moon is 397074 Km from the Earth
Find here more details on MARS.

10:24:35 up 8 days, 9:18, 0 users, load average: 0.63, 0.90, 1.05
Current CPU frequency is: 1000 Mhz
Current GPU temperature: 30.938°C
Current inside temperature is 20.0°C with a humidity of 59.7%
Second inside temperature is 20.2°C with a pressure of 1015.83 Hpa (29.76 inHg) and an uncorrected altitude of -21.71 m
ds18b20 now showing 19.6°C

All the sensors I use, DHT22 | BMP085 | MPU6050 | BH1750FVI | MMA7455 | HMC5883L | MPL3115A2 | DS1307 | HTU21 | AM2321 | DS3231 | INA219 | LM75A , and it's current readout can be viewed here please be patient as it needs to read all sensors data. The page loads after about 10 seconds. In our forum more details can be found such as the used software/sources. Feel free to add yours also..


Pressure BMP085
Pressure BMP085
Pressure BMP085
Pressure BMP085
PI CPU Temp
Inet Volkel temp
Inside temp BMP085
Humidity BMP085
PI CPU Temp
Inet Volkel temp
Inside temp BMP085
Humidity BMP085
PI CPU Temp
Inet Volkel temp
Inside temp BMP085
Humidity BMP085
PI CPU Temp
Inet Volkel temp
Inside temp BMP085
Humidity BMP085
PI CPU Temp
Inet Volkel temp
Inside temp BMP085
Humidity BMP085
Inside light BH1750FV
Inside light BH1750FV
Inside light BH1750FV
Inside light BH1750FV
Inside light BH1750FV
Inside light BH1750FV
Sunlight hours
 

Sun & Moon height


Wijchen weather

Weer Widget
ScreenSaver yr.no

Sun Moon Earth


EHEH 160812Z AUTO 25003KT 190V290 9999 OVC024 15/12 Q1020 WHT 28004KT 9999 FEW020 OVC025 EHEH 160812Z AUTO 25003KT 190V290 9999 OVC024 15/12 Q1020 WHT 28004KT 9999 FEW020 OVC025 EHEH 160812Z AUTO 25003KT 190V290 9999 OVC024 15/12 Q1020 WHT 28004KT 9999 FEW020 OVC025

Weather data from Volkel [NL] EHVK


13 minutes ago, at 08:12 UTC, the wind was blowing at a speed of 2.1 meters per second (4.6 miles per hour/4 knots) from West (280) in Volkel [EHVK], Netherlands. The temperature was 15 °C (59 °F) with a dewpoint of 12 °C (54 °F), and the pressure was 1,020 hPa (30.12 inHg). The relative humidity was 82.2%. There were overcast at a height of 732 meter (2400 feet), a few clouds at a height of 610 meter (2000 feet) and overcast at a height of 762 meter (2500 feet). The visibility was >10 kilometers (>6.2 miles).




View code:

Contact me  |  My Raspberry PI forum